Time;durP1;ratioP1;P1;durP2;ratioP2;P2;SDS_P1;SDS_P2;PMS_P1;PMS_P2;Temp;Humidity;BMP_temperature;BMP_pressure;BME280_temperature;BME280_humidity;BME280_pressure;Samples;Min_cycle;Max_cycle;Signal;HPM_P1;HPM_P2
2022/11/07 00:00:13;;;;;;;19.27;10.27;;;;;;;11.98;nan;-24151.59;5011683;28;20176;-76
2022/11/07 00:02:39;;;;;;;18.10;10.43;;;;;;;12.30;nan;-24160.47;5011451;28;20725;-75
2022/11/07 00:05:05;;;;;;;20.27;10.10;;;;;;;12.35;nan;-24162.00;5011792;28;20225;-75
2022/11/07 00:07:31;;;;;;;17.05;10.10;;;;;;;12.15;nan;-24156.25;5012011;28;20179;-74
2022/11/07 00:09:56;;;;;;;22.05;11.35;;;;;;;11.90;nan;-24149.34;5012019;28;20180;-73
2022/11/07 00:12:22;;;;;;;21.17;10.70;;;;;;;12.13;nan;-24155.66;5011917;28;20164;-73
2022/11/07 00:14:47;;;;;;;24.45;10.57;;;;;;;12.06;nan;-24153.84;5011464;28;20184;-73
2022/11/07 00:17:12;;;;;;;16.45;10.30;;;;;;;12.03;nan;-24153.00;5012292;28;20176;-73
2022/11/07 00:19:38;;;;;;;22.05;11.90;;;;;;;12.03;nan;-24152.84;5011695;28;20298;-73
2022/11/07 00:22:03;;;;;;;19.75;10.88;;;;;;;11.94;nan;-24150.47;5011755;28;20168;-73
2022/11/07 00:24:29;;;;;;;20.95;10.70;;;;;;;12.12;nan;-24155.38;5011604;28;20199;-74
2022/11/07 00:26:54;;;;;;;21.70;9.43;;;;;;;12.24;nan;-24158.78;5011475;28;20286;-73
2022/11/07 00:29:20;;;;;;;20.63;9.50;;;;;;;12.27;nan;-24159.75;5011349;28;20176;-73
2022/11/07 00:31:46;;;;;;;18.88;10.10;;;;;;;12.12;nan;-24155.53;5011469;28;20230;-74
2022/11/07 00:34:12;;;;;;;20.77;9.80;;;;;;;12.30;nan;-24160.59;5011592;28;20560;-73
2022/11/07 00:36:37;;;;;;;22.55;11.05;;;;;;;12.08;nan;-24154.41;5011860;28;20179;-74
2022/11/07 00:39:04;;;;;;;22.48;10.45;;;;;;;11.99;nan;-24151.88;5011436;28;20266;-74
2022/11/07 00:41:29;;;;;;;20.63;9.90;;;;;;;12.38;nan;-24162.84;5011813;28;20219;-74
2022/11/07 00:43:55;;;;;;;17.55;9.52;;;;;;;12.43;nan;-24163.97;5010775;28;20233;-74
2022/11/07 00:46:21;;;;;;;18.35;10.25;;;;;;;12.19;nan;-24157.50;5014986;28;20199;-74
2022/11/07 00:48:47;;;;;;;23.58;10.60;;;;;;;12.51;nan;-24166.38;5015025;28;20168;-73
2022/11/07 00:51:13;;;;;;;22.42;9.93;;;;;;;12.54;nan;-24167.06;5015451;28;20606;-73
2022/11/07 00:53:39;;;;;;;21.38;10.98;;;;;;;12.46;nan;-24164.97;5015261;28;20704;-74
2022/11/07 00:56:07;;;;;;;23.80;10.20;;;;;;;11.71;nan;-24143.97;5015082;28;20255;-74
2022/11/07 00:58:33;;;;;;;21.92;10.45;;;;;;;12.57;nan;-24167.91;5014838;28;20188;-74
2022/11/07 01:01:05;;;;;;;17.13;9.70;;;;;;;7.58;nan;-24028.69;5015567;28;20632;-73
2022/11/07 01:06:14;;;;;;;21.42;10.23;;;;;;;12.45;nan;-24164.53;5014668;28;20230;-74
2022/11/07 01:08:40;;;;;;;20.92;10.32;;;;;;;12.47;nan;-24165.09;5015089;28;20173;-74
2022/11/07 01:11:07;;;;;;;18.40;9.82;;;;;;;12.28;nan;-24159.91;5014714;28;20259;-73
2022/11/07 01:13:33;;;;;;;17.02;9.40;;;;;;;12.59;nan;-24168.63;5014850;28;20624;-73
2022/11/07 01:15:59;;;;;;;16.23;9.73;;;;;;;12.61;nan;-24169.03;5014818;28;20187;-73
2022/11/07 01:18:24;;;;;;;20.30;10.25;;;;;;;12.46;nan;-24164.97;5014486;28;20227;-74
2022/11/07 01:20:50;;;;;;;19.27;9.48;;;;;;;12.31;nan;-24160.75;5014105;28;20246;-74
2022/11/07 01:23:16;;;;;;;22.92;11.00;;;;;;;12.46;nan;-24164.81;5014466;28;20255;-74
2022/11/07 01:25:41;;;;;;;22.50;10.68;;;;;;;12.36;nan;-24162.28;5014291;28;20698;-74
2022/11/07 01:28:08;;;;;;;22.85;11.82;;;;;;;12.36;nan;-24162.16;5014589;28;20176;-74
2022/11/07 01:30:38;;;;;;;16.50;10.00;;;;;;;12.25;nan;-24159.19;5013903;28;20598;-74
2022/11/07 01:33:03;;;;;;;20.75;11.10;;;;;;;12.26;nan;-24159.34;5014507;28;20172;-73
2022/11/07 01:35:28;;;;;;;21.45;10.85;;;;;;;12.45;nan;-24164.69;5013812;28;20203;-74
2022/11/07 01:37:54;;;;;;;25.02;10.65;;;;;;;12.52;nan;-24166.66;5014374;28;20176;-74
2022/11/07 01:40:19;;;;;;;21.10;11.25;;;;;;;12.18;nan;-24157.09;5014212;28;20219;-73
2022/11/07 01:42:45;;;;;;;18.85;10.57;;;;;;;12.46;nan;-24164.81;5013971;28;20666;-73
2022/11/07 01:45:24;;;;;;;24.92;11.23;;;;;;;12.39;nan;-24163.00;5014092;28;20259;-73
2022/11/07 01:47:53;;;;;;;23.77;10.55;;;;;;;12.30;nan;-24160.59;5014065;28;20643;-73
2022/11/07 01:50:19;;;;;;;22.63;10.73;;;;;;;12.25;nan;-24159.06;5014021;28;20564;-73
2022/11/07 01:52:48;;;;;;;23.73;10.90;;;;;;;12.50;nan;-24166.09;5013713;28;20199;-73
2022/11/07 01:55:20;;;;;;;24.40;11.57;;;;;;;12.18;nan;-24157.22;5013789;28;20230;-73
2022/11/07 01:57:53;;;;;;;19.98;11.07;;;;;;;12.30;nan;-24160.59;5013487;28;20636;-74
2022/11/07 02:00:21;;;;;;;25.60;11.45;;;;;;;11.94;nan;-24150.47;5013994;28;20175;-74
2022/11/07 02:02:50;;;;;;;20.88;11.32;;;;;;;11.98;nan;-24151.59;5013618;28;20180;-74
2022/11/07 02:05:27;;;;;;;23.75;11.77;;;;;;;12.25;nan;-24159.19;5013369;28;20239;-74
2022/11/07 02:07:55;;;;;;;22.92;11.55;;;;;;;12.37;nan;-24162.56;5013775;28;20171;-74
2022/11/07 02:10:21;;;;;;;21.63;10.45;;;;;;;11.93;nan;-24150.31;5013765;28;20187;-73
2022/11/07 02:12:47;;;;;;;20.83;10.07;;;;;;;12.11;nan;-24155.13;5013503;28;20209;-73
2022/11/07 02:15:13;;;;;;;21.45;9.82;;;;;;;12.05;nan;-24153.56;5013769;28;20183;-73
2022/11/07 02:17:39;;;;;;;20.48;9.95;;;;;;;11.92;nan;-24149.91;5013790;28;20180;-73
2022/11/07 02:20:05;;;;;;;18.63;11.05;;;;;;;12.08;nan;-24154.41;5013257;28;20211;-74
2022/11/07 02:22:39;;;;;;;20.27;10.68;;;;;;;11.71;nan;-24144.13;5013253;28;20237;-74
2022/11/07 02:25:11;;;;;;;22.23;10.52;;;;;;;11.90;nan;-24149.34;5013494;28;20183;-74
2022/11/07 02:27:38;;;;;;;15.98;9.43;;;;;;;11.79;nan;-24146.38;5013436;28;20612;-74
2022/11/07 02:30:10;;;;;;;19.60;10.10;;;;;;;12.09;nan;-24154.53;5012759;28;20561;-75
2022/11/07 02:32:37;;;;;;;20.20;10.88;;;;;;;12.06;nan;-24153.84;5012972;28;20207;-74
2022/11/07 02:35:06;;;;;;;20.00;11.02;;;;;;;12.16;nan;-24156.66;5013198;28;20176;-74
2022/11/07 02:37:36;;;;;;;19.85;10.48;;;;;;;12.04;nan;-24153.28;5013161;28;20175;-74
2022/11/07 02:40:05;;;;;;;22.13;11.02;;;;;;;11.87;nan;-24148.50;5013156;28;20234;-74
2022/11/07 02:42:44;;;;;;;17.70;8.93;;;;;;;12.07;nan;-24154.13;5013299;28;20233;-74
2022/11/07 02:45:17;;;;;;;25.73;10.68;;;;;;;12.19;nan;-24157.38;5011137;28;20180;-74
2022/11/07 02:47:43;;;;;;;18.23;10.10;;;;;;;11.79;nan;-24146.38;5012454;28;20620;-73
2022/11/07 02:50:10;;;;;;;20.00;10.32;;;;;;;12.03;nan;-24153.00;5012361;28;20238;-73
2022/11/07 02:52:36;;;;;;;19.65;10.23;;;;;;;11.80;nan;-24146.66;5010932;28;20570;-73
2022/11/07 02:55:02;;;;;;;20.20;9.77;;;;;;;12.20;nan;-24157.78;5012203;28;20175;-73
2022/11/07 02:57:28;;;;;;;23.35;11.48;;;;;;;12.17;nan;-24156.94;5012078;28;20180;-73
2022/11/07 02:59:53;;;;;;;20.13;10.55;;;;;;;11.92;nan;-24149.91;5011957;28;20340;-74
2022/11/07 03:02:19;;;;;;;19.27;9.60;;;;;;;12.22;nan;-24158.22;5011665;28;20179;-74
2022/11/07 03:04:44;;;;;;;25.65;11.00;;;;;;;11.82;nan;-24147.09;5011595;28;20255;-74
2022/11/07 03:07:09;;;;;;;19.67;10.43;;;;;;;11.99;nan;-24151.88;5012399;28;20694;-74
2022/11/07 03:09:35;;;;;;;19.63;10.63;;;;;;;12.01;nan;-24152.28;5011963;28;20616;-74
2022/11/07 03:12:00;;;;;;;20.38;10.82;;;;;;;11.86;nan;-24148.22;5012223;28;20182;-74
2022/11/07 03:14:25;;;;;;;16.35;9.38;;;;;;;11.79;nan;-24146.38;5012826;28;20188;-74
2022/11/07 03:16:51;;;;;;;20.67;9.70;;;;;;;11.70;nan;-24143.69;5012518;28;20176;-75
2022/11/07 03:19:16;;;;;;;18.92;9.95;;;;;;;12.07;nan;-24154.00;5012420;28;20563;-74
2022/11/07 03:21:41;;;;;;;19.50;10.90;;;;;;;12.02;nan;-24152.72;5012554;28;20263;-74
2022/11/07 03:24:07;;;;;;;19.05;9.82;;;;;;;11.52;nan;-24138.78;5012248;28;20168;-74
2022/11/07 03:26:32;;;;;;;22.52;9.85;;;;;;;11.88;nan;-24148.91;5011604;28;20219;-74
2022/11/07 03:28:58;;;;;;;18.05;9.07;;;;;;;11.78;nan;-24146.09;5012028;28;20474;-74
2022/11/07 03:31:24;;;;;;;23.33;10.85;;;;;;;11.78;nan;-24145.97;5012160;28;20187;-74
2022/11/07 03:33:49;;;;;;;19.45;9.38;;;;;;;11.93;nan;-24150.31;5012713;28;20230;-74
2022/11/07 03:36:14;;;;;;;21.20;10.68;;;;;;;12.12;nan;-24155.53;5012359;28;20516;-74
2022/11/07 03:38:40;;;;;;;26.58;10.18;;;;;;;11.93;nan;-24150.31;5011978;28;20293;-75
2022/11/07 03:41:05;;;;;;;20.60;9.95;;;;;;;11.87;nan;-24148.63;5010610;28;20178;-75
2022/11/07 03:43:31;;;;;;;18.90;10.27;;;;;;;11.70;nan;-24143.69;5012021;28;20542;-74
2022/11/07 03:45:56;;;;;;;20.15;10.25;;;;;;;11.97;nan;-24151.16;5012220;28;20686;-75
2022/11/07 03:48:21;;;;;;;22.00;10.60;;;;;;;11.67;nan;-24142.84;5012000;28;20203;-74
2022/11/07 03:50:47;;;;;;;21.20;9.27;;;;;;;11.76;nan;-24145.53;5012161;28;20198;-74
2022/11/07 03:53:12;;;;;;;17.23;9.65;;;;;;;11.77;nan;-24145.69;5012054;28;20172;-75
2022/11/07 03:55:39;;;;;;;17.00;9.93;;;;;;;11.91;nan;-24149.75;5011558;28;20551;-74
2022/11/07 03:58:04;;;;;;;21.05;10.63;;;;;;;11.82;nan;-24147.22;5012234;28;20168;-73
2022/11/07 04:00:30;;;;;;;19.02;10.10;;;;;;;11.85;nan;-24147.94;5012091;28;20269;-74
2022/11/07 04:02:55;;;;;;;14.35;8.75;;;;;;;11.85;nan;-24148.06;5012009;28;20275;-75
2022/11/07 04:05:21;;;;;;;16.35;9.15;;;;;;;11.54;nan;-24139.34;5011971;28;20179;-74
2022/11/07 04:07:46;;;;;;;13.18;8.20;;;;;;;11.31;nan;-24133.00;5010802;28;20643;-75
2022/11/07 04:10:12;;;;;;;16.08;8.77;;;;;;;11.79;nan;-24146.38;5011624;28;20164;-74
2022/11/07 04:18:05;;;;;;;17.98;9.40;;;;;;;11.67;nan;-24142.84;5011430;28;20182;-74
2022/11/07 04:20:30;;;;;;;17.67;9.55;;;;;;;11.78;nan;-24145.97;5014781;28;20168;-74
2022/11/07 04:22:56;;;;;;;15.60;7.75;;;;;;;11.84;nan;-24147.66;5018192;28;20631;-73
2022/11/07 04:27:41;;;;;;;13.20;7.80;;;;;;;11.67;nan;-24142.84;5018918;28;20184;-74
2022/11/07 04:28:07;;;;;;;14.07;8.23;;;;;;;11.92;nan;-24150.03;5020432;28;20546;-73
2022/11/07 04:30:32;;;;;;;15.10;8.43;;;;;;;11.99;nan;-24151.72;5020052;28;20280;-74
2022/11/07 04:32:59;;;;;;;15.45;8.25;;;;;;;11.75;nan;-24145.25;5019664;28;20858;-74
2022/11/07 04:35:31;;;;;;;17.38;8.68;;;;;;;11.93;nan;-24150.19;5018748;28;20187;-74
2022/11/07 04:37:57;;;;;;;18.15;8.93;;;;;;;11.97;nan;-24151.31;5020087;28;20278;-74
2022/11/07 04:40:23;;;;;;;16.98;8.32;;;;;;;11.78;nan;-24145.97;5019100;28;20266;-75
2022/11/07 04:42:49;;;;;;;12.82;7.50;;;;;;;11.86;nan;-24148.34;5019929;28;20283;-74
2022/11/07 04:45:15;;;;;;;18.88;9.35;;;;;;;12.00;nan;-24152.16;5019549;28;20183;-74
2022/11/07 04:47:41;;;;;;;16.63;8.63;;;;;;;11.72;nan;-24144.41;5017888;28;20265;-75
2022/11/07 04:50:10;;;;;;;16.25;7.97;;;;;;;11.83;nan;-24147.50;5019868;28;20643;-74
2022/11/07 04:52:35;;;;;;;15.77;8.48;;;;;;;12.21;nan;-24158.06;5019672;28;20192;-74
2022/11/07 04:55:01;;;;;;;14.13;8.20;;;;;;;11.89;nan;-24149.06;5019063;28;20188;-74
2022/11/07 04:57:26;;;;;;;17.65;8.80;;;;;;;11.68;nan;-24143.28;5019331;28;20233;-74
2022/11/07 04:59:52;;;;;;;18.10;8.77;;;;;;;11.85;nan;-24147.94;5018910;28;20240;-73
2022/11/07 05:02:17;;;;;;;16.85;8.98;;;;;;;11.43;nan;-24136.22;5019120;28;20176;-75
2022/11/07 05:04:42;;;;;;;18.55;9.57;;;;;;;11.53;nan;-24139.19;5018538;28;20635;-75
2022/11/07 05:07:08;;;;;;;17.48;9.10;;;;;;;11.58;nan;-24140.47;5019019;28;20176;-75
2022/11/07 05:09:34;;;;;;;16.48;8.27;;;;;;;11.40;nan;-24135.53;5018299;28;20195;-74
2022/11/07 05:12:01;;;;;;;19.80;8.80;;;;;;;11.64;nan;-24142.16;5018698;28;20206;-75
2022/11/07 05:14:29;;;;;;;20.42;9.45;;;;;;;11.45;nan;-24136.81;5020391;28;20175;-75
2022/11/07 05:16:55;;;;;;;17.23;9.05;;;;;;;11.37;nan;-24134.69;5019142;28;20179;-75
2022/11/07 05:19:21;;;;;;;16.33;9.25;;;;;;;11.64;nan;-24142.16;5018132;28;20204;-75
2022/11/07 05:21:46;;;;;;;19.58;8.57;;;;;;;10.68;nan;-24115.38;5019052;28;20266;-74
2022/11/07 05:24:12;;;;;;;15.27;8.43;;;;;;;11.37;nan;-24134.69;5024428;28;20673;-74
2022/11/07 05:26:38;;;;;;;26.23;9.90;;;;;;;11.71;nan;-24144.13;5016660;28;20227;-75
2022/11/07 05:29:06;;;;;;;17.88;9.13;;;;;;;11.81;nan;-24146.81;5034057;28;20171;-75
2022/11/07 05:31:32;;;;;;;19.42;9.25;;;;;;;11.53;nan;-24139.19;5024881;28;20267;-74
2022/11/07 05:33:57;;;;;;;17.92;9.30;;;;;;;11.66;nan;-24142.56;5014057;28;20263;-74
2022/11/07 05:36:23;;;;;;;17.65;8.23;;;;;;;11.76;nan;-24145.53;5014527;28;20169;-76
2022/11/07 05:38:51;;;;;;;20.33;9.25;;;;;;;11.50;nan;-24138.34;5014171;28;20195;-74
2022/11/07 05:41:20;;;;;;;18.92;8.93;;;;;;;11.91;nan;-24149.63;5014156;28;20223;-74
2022/11/07 05:43:46;;;;;;;20.08;9.23;;;;;;;11.82;nan;-24147.09;5013914;28;20167;-75
2022/11/07 05:46:12;;;;;;;16.45;9.25;;;;;;;10.12;nan;-24099.84;5013913;28;20172;-73
2022/11/07 05:48:37;;;;;;;15.43;7.95;;;;;;;11.55;nan;-24139.47;5013813;28;20179;-73
2022/11/07 05:51:05;;;;;;;17.42;9.05;;;;;;;11.50;nan;-24138.22;5013845;28;20172;-74
2022/11/07 05:53:31;;;;;;;18.25;8.35;;;;;;;11.88;nan;-24148.78;5013801;28;20168;-73
2022/11/07 05:55:56;;;;;;;16.08;8.35;;;;;;;11.62;nan;-24141.59;5013670;28;20640;-73
2022/11/07 05:58:22;;;;;;;14.00;7.50;;;;;;;11.95;nan;-24150.88;5013454;28;20195;-74
2022/11/07 06:00:48;;;;;;;14.77;8.27;;;;;;;12.00;nan;-24152.00;5011966;28;20723;-75
2022/11/07 06:03:14;;;;;;;14.85;8.30;;;;;;;11.82;nan;-24147.09;5013281;28;20244;-74
2022/11/07 06:05:41;;;;;;;15.15;8.32;;;;;;;11.90;nan;-24149.34;5012876;28;20650;-74
2022/11/07 06:08:09;;;;;;;16.95;9.20;;;;;;;12.04;nan;-24153.28;5013003;28;20274;-75
2022/11/07 06:10:36;;;;;;;13.07;7.63;;;;;;;12.03;nan;-24152.84;5013054;28;20265;-74
2022/11/07 06:13:04;;;;;;;13.93;7.78;;;;;;;12.14;nan;-24155.97;5012140;28;20639;-75
2022/11/07 06:15:32;;;;;;;22.90;9.32;;;;;;;12.18;nan;-24157.22;5012335;28;20229;-75
2022/11/07 06:18:03;;;;;;;18.60;8.70;;;;;;;12.24;nan;-24158.91;5012557;28;20169;-73
2022/11/07 06:20:28;;;;;;;12.85;7.45;;;;;;;12.33;nan;-24161.31;5012788;28;20237;-74
2022/11/07 06:22:58;;;;;;;12.63;7.93;;;;;;;12.43;nan;-24163.97;5012949;28;20271;-74
2022/11/07 06:25:24;;;;;;;18.42;9.80;;;;;;;12.45;nan;-24164.53;5025527;28;20176;-75
2022/11/07 06:27:50;;;;;;;21.70;10.48;;;;;;;12.25;nan;-24159.06;5020713;28;20583;-74
2022/11/07 06:30:15;;;;;;;14.50;8.00;;;;;;;12.45;nan;-24164.69;5032417;28;20204;-74
2022/11/07 06:32:43;;;;;;;16.38;9.88;;;;;;;12.63;nan;-24169.59;5019672;28;20179;-75
2022/11/07 06:35:10;;;;;;;31.45;11.50;;;;;;;12.71;nan;-24171.84;5012578;28;20180;-74
2022/11/07 06:37:35;;;;;;;23.50;10.77;;;;;;;13.10;nan;-24182.81;5012855;28;20204;-75
2022/11/07 06:40:01;;;;;;;17.27;8.75;;;;;;;13.06;nan;-24181.56;5012722;28;20250;-75
2022/11/07 06:42:26;;;;;;;15.50;9.10;;;;;;;13.27;nan;-24187.47;5027125;28;20184;-75
2022/11/07 06:44:51;;;;;;;16.67;8.98;;;;;;;13.08;nan;-24182.25;5012382;28;20178;-75
2022/11/07 06:47:17;;;;;;;16.15;8.60;;;;;;;13.23;nan;-24186.47;5012436;28;20168;-74
2022/11/07 06:49:42;;;;;;;14.32;7.65;;;;;;;13.36;nan;-24190.00;5011927;28;20172;-74
2022/11/07 06:52:07;;;;;;;24.67;8.55;;;;;;;13.52;nan;-24194.47;5011889;28;20176;-76
2022/11/07 06:54:33;;;;;;;18.70;8.75;;;;;;;13.48;nan;-24193.22;5012349;28;20176;-76
2022/11/07 06:56:58;;;;;;;17.73;9.98;;;;;;;13.63;nan;-24197.44;5012164;28;20168;-73
2022/11/07 06:59:24;;;;;;;16.15;9.05;;;;;;;13.89;nan;-24204.72;5012194;28;20211;-73
2022/11/07 07:01:49;;;;;;;16.55;8.63;;;;;;;13.94;nan;-24206.00;5012197;28;20628;-75
2022/11/07 07:04:15;;;;;;;21.55;10.07;;;;;;;13.85;nan;-24203.59;5011869;28;20172;-73
2022/11/07 07:06:40;;;;;;;16.55;8.88;;;;;;;14.31;nan;-24216.22;5011731;28;20194;-73
2022/11/07 07:09:05;;;;;;;19.20;9.25;;;;;;;14.34;nan;-24217.22;5012311;28;20260;-73
2022/11/07 07:11:34;;;;;;;17.40;9.05;;;;;;;14.29;nan;-24215.81;5011890;28;20566;-73
2022/11/07 07:13:59;;;;;;;15.38;7.97;;;;;;;14.37;nan;-24218.06;5012361;28;20180;-74
2022/11/07 07:16:24;;;;;;;15.55;8.48;;;;;;;14.49;nan;-24221.28;5012368;28;20258;-74
2022/11/07 07:18:50;;;;;;;18.30;9.05;;;;;;;14.47;nan;-24220.72;5011782;28;20202;-73
2022/11/07 07:21:15;;;;;;;14.43;8.60;;;;;;;14.51;nan;-24221.84;5011725;28;20168;-75
2022/11/07 07:23:41;;;;;;;17.65;9.25;;;;;;;14.57;nan;-24223.66;5011986;28;20183;-73
2022/11/07 07:26:11;;;;;;;16.88;8.13;;;;;;;14.32;nan;-24216.66;5011807;28;20222;-74
2022/11/07 07:28:37;;;;;;;15.55;8.38;;;;;;;14.51;nan;-24221.84;5011923;28;20164;-74
2022/11/07 07:31:14;;;;;;;17.50;8.52;;;;;;;14.66;nan;-24226.06;5011586;28;20242;-74
2022/11/07 07:33:41;;;;;;;18.83;9.43;;;;;;;14.71;nan;-24227.47;5043662;28;20258;-73
2022/11/07 07:36:07;;;;;;;16.42;8.25;;;;;;;14.73;nan;-24227.88;5010420;28;20176;-73
2022/11/07 07:38:33;;;;;;;17.50;8.35;;;;;;;14.65;nan;-24225.63;5011410;28;20203;-73
2022/11/07 07:40:59;;;;;;;15.43;8.38;;;;;;;14.76;nan;-24228.84;5011849;28;20586;-73
2022/11/07 07:43:26;;;;;;;14.07;8.07;;;;;;;14.66;nan;-24225.91;5010240;28;20695;-73
2022/11/07 07:45:51;;;;;;;14.15;7.78;;;;;;;14.89;nan;-24232.38;5010636;28;20187;-73
2022/11/07 07:48:17;;;;;;;24.52;8.43;;;;;;;14.72;nan;-24227.75;5011224;28;20168;-73
2022/11/07 07:50:42;;;;;;;16.38;8.70;;;;;;;14.54;nan;-24222.69;5011268;28;20215;-73
2022/11/07 07:53:08;;;;;;;17.13;8.65;;;;;;;14.58;nan;-24223.81;5009955;28;20706;-74
2022/11/07 07:55:34;;;;;;;16.67;8.50;;;;;;;14.98;nan;-24234.88;5043026;28;20186;-74
2022/11/07 07:57:59;;;;;;;19.23;7.90;;;;;;;14.93;nan;-24233.50;5015169;28;20194;-74
2022/11/07 08:00:24;;;;;;;17.13;8.70;;;;;;;15.37;nan;-24245.81;5031357;28;20184;-75
2022/11/07 08:02:50;;;;;;;17.48;9.00;;;;;;;15.51;nan;-24249.59;5023260;28;20267;-74
2022/11/07 08:05:16;;;;;;;15.32;8.05;;;;;;;15.62;nan;-24252.53;5011916;28;20175;-74
2022/11/07 08:07:45;;;;;;;17.52;8.00;;;;;;;15.74;nan;-24256.03;5019466;28;20199;-74
2022/11/07 08:10:11;;;;;;;14.60;7.45;;;;;;;15.93;nan;-24261.22;5029045;28;20630;-74
2022/11/07 08:12:48;;;;;;;15.07;7.07;;;;;;;16.06;nan;-24264.72;5011835;28;20171;-74
2022/11/07 08:15:15;;;;;;;16.10;7.93;;;;;;;16.25;nan;-24270.03;5019669;28;20665;-74
2022/11/07 08:17:41;;;;;;;21.40;9.38;;;;;;;16.26;nan;-24270.31;5031432;28;20175;-74
2022/11/07 08:20:09;;;;;;;15.43;8.77;;;;;;;16.46;nan;-24275.88;5031701;28;20213;-74
2022/11/07 08:22:35;;;;;;;13.52;7.88;;;;;;;14.01;nan;-24207.97;5032346;28;20209;-74
2022/11/07 08:25:00;;;;;;;21.10;8.13;;;;;;;16.70;nan;-24282.59;5031814;28;20711;-74
2022/11/07 08:27:26;;;;;;;17.25;7.65;;;;;;;16.49;nan;-24276.59;5031641;28;20309;-74
2022/11/07 08:29:51;;;;;;;14.63;8.27;;;;;;;16.54;nan;-24278.00;5031221;28;20512;-73
2022/11/07 08:32:17;;;;;;;14.13;8.10;;;;;;;16.72;nan;-24283.16;5031580;28;20180;-74
2022/11/07 08:34:42;;;;;;;18.40;8.50;;;;;;;17.06;nan;-24292.38;5031419;28;20320;-75
2022/11/07 08:37:07;;;;;;;16.15;8.02;;;;;;;16.65;nan;-24281.22;5031179;28;20562;-74
2022/11/07 08:39:33;;;;;;;13.63;6.90;;;;;;;17.19;nan;-24296.16;5031460;28;20572;-74
2022/11/07 08:41:58;;;;;;;12.88;6.90;;;;;;;16.77;nan;-24284.41;5031376;28;20190;-76
2022/11/07 08:44:23;;;;;;;10.23;5.00;;;;;;;16.99;nan;-24290.56;5029616;28;20168;-75
2022/11/07 08:46:49;;;;;;;6.65;4.32;;;;;;;17.01;nan;-24291.13;5031352;28;20180;-74
2022/11/07 08:49:14;;;;;;;4.57;2.88;;;;;;;16.80;nan;-24285.25;5031287;28;20525;-74
2022/11/07 08:51:40;;;;;;;12.30;3.55;;;;;;;16.81;nan;-24285.53;5030505;28;20238;-74
2022/11/07 08:54:05;;;;;;;7.07;3.13;;;;;;;17.11;nan;-24293.91;5030936;28;20623;-73
2022/11/07 08:56:32;;;;;;;5.82;3.15;;;;;;;17.06;nan;-24292.38;5031003;28;20192;-74
2022/11/07 08:58:57;;;;;;;7.43;3.55;;;;;;;17.05;nan;-24292.25;5031214;28;20662;-74
2022/11/07 09:01:23;;;;;;;4.22;2.70;;;;;;;17.38;nan;-24301.31;5030729;28;20177;-74
2022/11/07 09:03:48;;;;;;;5.70;3.05;;;;;;;17.15;nan;-24295.03;5031185;28;20171;-73
2022/11/07 09:06:14;;;;;;;6.90;3.88;;;;;;;17.34;nan;-24300.19;5032078;28;20258;-74
2022/11/07 09:08:40;;;;;;;5.28;2.95;;;;;;;17.22;nan;-24297.00;5034237;28;20206;-74
2022/11/07 09:11:05;;;;;;;5.68;3.30;;;;;;;17.49;nan;-24304.38;5034499;28;20172;-75
2022/11/07 09:13:32;;;;;;;8.25;3.30;;;;;;;17.83;nan;-24313.59;5034848;28;20251;-76
2022/11/07 09:15:59;;;;;;;5.03;3.45;;;;;;;17.91;nan;-24315.97;5034971;28;20170;-74
2022/11/07 09:18:26;;;;;;;5.85;3.25;;;;;;;17.62;nan;-24308.00;5034760;28;20191;-74
2022/11/07 09:20:51;;;;;;;5.13;3.03;;;;;;;17.96;nan;-24317.22;5034668;28;20662;-75
2022/11/07 09:23:17;;;;;;;21.48;5.50;;;;;;;17.98;nan;-24317.78;5034751;28;20254;-74
2022/11/07 09:25:42;;;;;;;9.52;2.88;;;;;;;18.11;nan;-24321.41;5033020;28;20219;-74
2022/11/07 09:28:08;;;;;;;7.40;3.13;;;;;;;18.20;nan;-24323.78;5034036;28;20274;-74
2022/11/07 09:30:33;;;;;;;7.78;3.13;;;;;;;18.34;nan;-24327.69;5034297;28;20216;-74
2022/11/07 09:32:59;;;;;;;4.38;3.17;;;;;;;18.12;nan;-24321.53;5034114;28;20246;-74
2022/11/07 09:35:24;;;;;;;5.25;3.15;;;;;;;18.45;nan;-24330.88;5033922;28;20176;-74
2022/11/07 09:37:50;;;;;;;6.13;3.08;;;;;;;18.17;nan;-24323.06;5034054;28;20641;-74
2022/11/07 09:40:18;;;;;;;6.05;3.20;;;;;;;18.18;nan;-24323.34;5034025;28;20203;-74
2022/11/07 09:43:08;;;;;;;5.53;3.35;;;;;;;18.29;nan;-24326.41;5033984;28;20182;-73
2022/11/07 09:45:48;;;;;;;7.00;3.22;;;;;;;17.95;nan;-24316.94;5033821;28;20175;-74
2022/11/07 09:48:19;;;;;;;5.70;3.28;;;;;;;18.04;nan;-24319.44;5034116;28;20234;-74
2022/11/07 09:50:48;;;;;;;5.47;3.65;;;;;;;17.87;nan;-24314.84;5033922;28;20202;-74
2022/11/07 09:53:13;;;;;;;5.93;3.30;;;;;;;18.21;nan;-24324.06;5033652;28;20179;-74
2022/11/07 09:56:06;;;;;;;7.72;3.70;;;;;;;18.24;nan;-24324.88;5033771;28;20194;-74
2022/11/07 09:58:35;;;;;;;14.85;3.63;;;;;;;18.09;nan;-24320.84;5032744;28;20313;-74
2022/11/07 10:01:04;;;;;;;5.75;3.38;;;;;;;18.00;nan;-24318.34;5033566;28;20172;-74
2022/11/07 10:03:32;;;;;;;6.18;3.35;;;;;;;17.91;nan;-24315.81;5033633;28;20183;-74
2022/11/07 10:06:03;;;;;;;10.27;4.15;;;;;;;18.01;nan;-24318.75;5034032;28;20177;-75
2022/11/07 10:08:39;;;;;;;5.30;3.13;;;;;;;17.17;nan;-24295.44;5033528;28;20170;-74
2022/11/07 10:11:12;;;;;;;9.85;3.80;;;;;;;17.37;nan;-24301.03;5034153;28;20167;-74
2022/11/07 10:13:47;;;;;;;6.55;3.70;;;;;;;17.50;nan;-24304.66;5034164;28;20176;-74
2022/11/07 10:16:46;;;;;;;7.70;3.63;;;;;;;17.89;nan;-24315.28;5033705;28;20162;-73
2022/11/07 10:19:11;;;;;;;8.05;3.97;;;;;;;18.22;nan;-24324.47;5033063;28;20252;-74
2022/11/07 10:21:52;;;;;;;8.70;4.20;;;;;;;18.43;nan;-24330.31;5033089;28;20655;-74
2022/11/07 10:24:39;;;;;;;9.23;4.00;;;;;;;18.40;nan;-24329.34;5033933;28;20190;-71
2022/11/07 10:27:10;;;;;;;8.25;4.00;;;;;;;18.26;nan;-24325.59;5013262;28;20723;-70
2022/11/07 10:29:52;;;;;;;7.97;4.13;;;;;;;18.20;nan;-24323.78;5012696;28;20177;-70
2022/11/07 10:32:21;;;;;;;6.20;3.83;;;;;;;17.92;nan;-24316.25;5012756;28;20161;-71
2022/11/07 10:34:54;;;;;;;8.68;4.30;;;;;;;18.30;nan;-24326.56;5012440;28;20249;-70
2022/11/07 10:37:20;;;;;;;5.72;3.60;;;;;;;18.08;nan;-24320.56;5012931;28;20168;-71
2022/11/07 10:39:46;;;;;;;8.27;4.13;;;;;;;18.02;nan;-24318.91;5012647;28;20250;-70
2022/11/07 10:42:16;;;;;;;10.73;3.97;;;;;;;18.01;nan;-24318.63;5012330;28;20176;-73
2022/11/07 10:44:42;;;;;;;9.82;4.78;;;;;;;18.25;nan;-24325.31;5012579;28;20175;-70
2022/11/07 10:47:19;;;;;;;6.75;3.92;;;;;;;18.48;nan;-24331.56;5012652;28;20616;-71
2022/11/07 10:50:04;;;;;;;6.50;3.78;;;;;;;18.70;nan;-24337.72;5010969;28;20401;-72
2022/11/07 10:52:29;;;;;;;8.00;4.32;;;;;;;18.83;nan;-24341.19;5010699;28;20180;-70
2022/11/07 10:55:13;;;;;;;9.93;4.60;;;;;;;18.44;nan;-24330.59;5012385;28;20553;-72
2022/11/07 10:57:39;;;;;;;10.95;4.32;;;;;;;18.56;nan;-24333.66;5012430;28;20186;-72
2022/11/07 11:00:23;;;;;;;11.50;5.07;;;;;;;18.45;nan;-24330.75;5011990;28;20196;-72
2022/11/07 11:02:51;;;;;;;9.50;4.63;;;;;;;19.15;nan;-24350.09;5011934;28;20258;-72
2022/11/07 11:05:24;;;;;;;8.02;4.38;;;;;;;19.08;nan;-24348.00;5012155;28;20293;-71
2022/11/07 11:07:50;;;;;;;7.80;4.35;;;;;;;19.21;nan;-24351.63;5012230;28;20243;-71
2022/11/07 11:10:22;;;;;;;7.88;4.85;;;;;;;19.11;nan;-24348.97;5012406;28;20165;-71
2022/11/07 11:12:48;;;;;;;10.23;4.88;;;;;;;19.37;nan;-24356.06;5012330;28;20255;-70
2022/11/07 11:15:25;;;;;;;8.55;4.15;;;;;;;19.70;nan;-24365.25;5012171;28;20203;-72
2022/11/07 11:17:58;;;;;;;9.35;4.32;;;;;;;19.87;nan;-24369.84;5012101;28;20187;-72
2022/11/07 11:21:00;;;;;;;7.60;4.30;;;;;;;19.90;nan;-24370.69;5012059;28;20257;-70
2022/11/07 11:23:30;;;;;;;10.98;4.28;;;;;;;20.22;nan;-24379.56;5011155;28;20639;-71
2022/11/07 11:26:01;;;;;;;9.38;5.07;;;;;;;19.95;nan;-24372.06;5011489;28;20227;-70
2022/11/07 11:28:35;;;;;;;9.90;5.25;;;;;;;19.55;nan;-24361.09;5010952;28;20172;-69
2022/11/07 11:31:20;;;;;;;7.63;4.32;;;;;;;19.69;nan;-24364.97;5011830;28;20213;-72
2022/11/07 11:34:22;;;;;;;10.32;4.90;;;;;;;19.97;nan;-24372.63;5012145;28;20195;-72
2022/11/07 11:37:00;;;;;;;8.65;4.47;;;;;;;19.59;nan;-24362.06;5010806;28;20270;-71
2022/11/07 11:39:46;;;;;;;10.32;4.85;;;;;;;19.86;nan;-24369.56;5011654;28;20247;-70
2022/11/07 11:42:31;;;;;;;13.52;5.22;;;;;;;19.73;nan;-24365.94;5021702;28;20604;-72
2022/11/07 11:45:02;;;;;;;15.57;5.47;;;;;;;19.44;nan;-24357.88;5017203;28;20214;-71